sensor_id;sensor_type;location;lat;lon;timestamp;temperature;humidity
2212;DHT22;48849;48.758;9.158;2022-09-21T00:01:22;12.40;99.90
2212;DHT22;48849;48.758;9.158;2022-09-21T00:03:51;12.40;99.90
2212;DHT22;48849;48.758;9.158;2022-09-21T00:06:20;12.30;99.90
2212;DHT22;48849;48.758;9.158;2022-09-21T00:08:47;12.30;99.90
2212;DHT22;48849;48.758;9.158;2022-09-21T00:11:17;12.30;99.90
2212;DHT22;48849;48.758;9.158;2022-09-21T00:13:44;12.20;99.90
2212;DHT22;48849;48.758;9.158;2022-09-21T00:16:13;12.20;99.90
2212;DHT22;48849;48.758;9.158;2022-09-21T00:18:40;12.30;99.90
2212;DHT22;48849;48.758;9.158;2022-09-21T00:21:08;12.30;99.90
2212;DHT22;48849;48.758;9.158;2022-09-21T00:23:35;12.20;99.90
2212;DHT22;48849;48.758;9.158;2022-09-21T00:26:08;12.20;99.90
2212;DHT22;48849;48.758;9.158;2022-09-21T00:28:37;12.10;99.90
2212;DHT22;48849;48.758;9.158;2022-09-21T00:31:07;12.10;99.90
2212;DHT22;48849;48.758;9.158;2022-09-21T00:33:35;12.10;99.90
2212;DHT22;48849;48.758;9.158;2022-09-21T00:36:03;12.10;99.90
2212;DHT22;48849;48.758;9.158;2022-09-21T00:38:30;12.00;99.90
2212;DHT22;48849;48.758;9.158;2022-09-21T00:40:57;12.00;99.90
2212;DHT22;48849;48.758;9.158;2022-09-21T00:43:24;12.00;99.90
2212;DHT22;48849;48.758;9.158;2022-09-21T00:45:57;12.00;99.90
2212;DHT22;48849;48.758;9.158;2022-09-21T00:48:25;12.00;99.90
2212;DHT22;48849;48.758;9.158;2022-09-21T00:50:54;12.00;99.90
2212;DHT22;48849;48.758;9.158;2022-09-21T00:53:21;12.00;99.90
2212;DHT22;48849;48.758;9.158;2022-09-21T00:55:51;11.90;99.90
2212;DHT22;48849;48.758;9.158;2022-09-21T00:58:23;11.90;99.90
2212;DHT22;48849;48.758;9.158;2022-09-21T01:00:50;11.90;99.90
2212;DHT22;48849;48.758;9.158;2022-09-21T01:03:19;12.00;99.90
2212;DHT22;48849;48.758;9.158;2022-09-21T01:05:45;12.00;99.90
2212;DHT22;48849;48.758;9.158;2022-09-21T01:08:13;12.00;99.90
2212;DHT22;48849;48.758;9.158;2022-09-21T01:10:48;11.90;99.90
2212;DHT22;48849;48.758;9.158;2022-09-21T01:13:23;11.90;99.90
2212;DHT22;48849;48.758;9.158;2022-09-21T01:15:57;11.90;99.90
2212;DHT22;48849;48.758;9.158;2022-09-21T01:18:34;11.90;99.90
2212;DHT22;48849;48.758;9.158;2022-09-21T01:21:14;11.90;99.90
2212;DHT22;48849;48.758;9.158;2022-09-21T01:24:10;11.90;99.90
2212;DHT22;48849;48.758;9.158;2022-09-21T01:27:04;11.90;99.90
2212;DHT22;48849;48.758;9.158;2022-09-21T01:29:40;11.80;99.90
2212;DHT22;48849;48.758;9.158;2022-09-21T01:32:11;11.80;99.90
2212;DHT22;48849;48.758;9.158;2022-09-21T01:34:43;11.80;99.90
2212;DHT22;48849;48.758;9.158;2022-09-21T01:37:15;11.80;99.90
2212;DHT22;48849;48.758;9.158;2022-09-21T01:39:46;11.80;99.90
2212;DHT22;48849;48.758;9.158;2022-09-21T01:42:15;11.80;99.90
2212;DHT22;48849;48.758;9.158;2022-09-21T01:44:45;11.80;99.90
2212;DHT22;48849;48.758;9.158;2022-09-21T01:47:13;11.70;99.90
2212;DHT22;48849;48.758;9.158;2022-09-21T01:49:44;11.70;99.90
2212;DHT22;48849;48.758;9.158;2022-09-21T01:52:14;11.80;99.90
2212;DHT22;48849;48.758;9.158;2022-09-21T01:54:46;11.70;99.90
2212;DHT22;48849;48.758;9.158;2022-09-21T01:57:20;11.70;99.90
2212;DHT22;48849;48.758;9.158;2022-09-21T01:59:52;11.70;99.90
2212;DHT22;48849;48.758;9.158;2022-09-21T02:02:24;11.60;99.90
2212;DHT22;48849;48.758;9.158;2022-09-21T02:04:52;11.70;99.90
2212;DHT22;48849;48.758;9.158;2022-09-21T02:07:19;11.70;99.90
2212;DHT22;48849;48.758;9.158;2022-09-21T02:09:46;11.70;99.90
2212;DHT22;48849;48.758;9.158;2022-09-21T02:12:13;11.70;99.90
2212;DHT22;48849;48.758;9.158;2022-09-21T02:14:40;11.60;99.90
2212;DHT22;48849;48.758;9.158;2022-09-21T02:17:16;11.60;99.90
2212;DHT22;48849;48.758;9.158;2022-09-21T02:19:48;11.50;99.90
2212;DHT22;48849;48.758;9.158;2022-09-21T02:22:21;11.50;99.90
2212;DHT22;48849;48.758;9.158;2022-09-21T02:24:59;11.50;99.90
2212;DHT22;48849;48.758;9.158;2022-09-21T02:27:33;11.50;99.90
2212;DHT22;48849;48.758;9.158;2022-09-21T02:30:05;11.50;99.90
2212;DHT22;48849;48.758;9.158;2022-09-21T02:32:39;11.40;99.90
2212;DHT22;48849;48.758;9.158;2022-09-21T02:35:13;11.40;99.90
2212;DHT22;48849;48.758;9.158;2022-09-21T02:37:45;11.40;99.90
2212;DHT22;48849;48.758;9.158;2022-09-21T02:40:22;11.40;99.90
2212;DHT22;48849;48.758;9.158;2022-09-21T02:42:56;11.40;99.90
2212;DHT22;48849;48.758;9.158;2022-09-21T02:45:26;11.40;99.90
2212;DHT22;48849;48.758;9.158;2022-09-21T02:47:58;11.40;99.90
2212;DHT22;48849;48.758;9.158;2022-09-21T02:50:30;11.30;99.90
2212;DHT22;48849;48.758;9.158;2022-09-21T02:53:00;11.30;99.90
2212;DHT22;48849;48.758;9.158;2022-09-21T02:57:58;11.30;99.90
2212;DHT22;48849;48.758;9.158;2022-09-21T03:00:27;11.30;99.90
2212;DHT22;48849;48.758;9.158;2022-09-21T03:02:55;11.30;99.90
2212;DHT22;48849;48.758;9.158;2022-09-21T03:05:22;11.30;99.90
2212;DHT22;48849;48.758;9.158;2022-09-21T03:07:49;11.30;99.90
2212;DHT22;48849;48.758;9.158;2022-09-21T03:10:15;11.30;99.90
2212;DHT22;48849;48.758;9.158;2022-09-21T03:12:43;11.30;99.90
2212;DHT22;48849;48.758;9.158;2022-09-21T03:15:10;11.10;99.90
2212;DHT22;48849;48.758;9.158;2022-09-21T03:17:37;11.10;99.90
2212;DHT22;48849;48.758;9.158;2022-09-21T03:20:06;11.10;99.90
2212;DHT22;48849;48.758;9.158;2022-09-21T03:22:32;11.10;99.90
2212;DHT22;48849;48.758;9.158;2022-09-21T03:24:59;11.10;99.90
2212;DHT22;48849;48.758;9.158;2022-09-21T03:27:26;11.10;99.90
2212;DHT22;48849;48.758;9.158;2022-09-21T03:29:52;11.10;99.90
2212;DHT22;48849;48.758;9.158;2022-09-21T03:32:19;11.10;99.90
2212;DHT22;48849;48.758;9.158;2022-09-21T03:34:46;11.10;99.90
2212;DHT22;48849;48.758;9.158;2022-09-21T03:37:14;11.10;99.90
2212;DHT22;48849;48.758;9.158;2022-09-21T03:39:41;11.10;99.90
2212;DHT22;48849;48.758;9.158;2022-09-21T03:42:07;11.10;99.90
2212;DHT22;48849;48.758;9.158;2022-09-21T03:44:35;11.20;99.90
2212;DHT22;48849;48.758;9.158;2022-09-21T03:47:02;11.10;99.90
2212;DHT22;48849;48.758;9.158;2022-09-21T03:49:31;11.00;99.90
2212;DHT22;48849;48.758;9.158;2022-09-21T03:51:58;11.00;99.90
2212;DHT22;48849;48.758;9.158;2022-09-21T03:54:26;11.00;99.90
2212;DHT22;48849;48.758;9.158;2022-09-21T03:56:53;11.00;99.90
2212;DHT22;48849;48.758;9.158;2022-09-21T03:59:20;11.00;99.90
2212;DHT22;48849;48.758;9.158;2022-09-21T04:01:46;11.00;99.90
2212;DHT22;48849;48.758;9.158;2022-09-21T04:04:13;11.00;99.90
2212;DHT22;48849;48.758;9.158;2022-09-21T04:06:41;11.00;99.90
2212;DHT22;48849;48.758;9.158;2022-09-21T04:09:08;11.10;99.90
2212;DHT22;48849;48.758;9.158;2022-09-21T04:11:36;11.00;99.90
2212;DHT22;48849;48.758;9.158;2022-09-21T04:14:03;11.10;99.90
2212;DHT22;48849;48.758;9.158;2022-09-21T04:16:30;11.10;99.90
2212;DHT22;48849;48.758;9.158;2022-09-21T04:18:57;11.00;99.90
2212;DHT22;48849;48.758;9.158;2022-09-21T04:21:24;11.00;99.90
2212;DHT22;48849;48.758;9.158;2022-09-21T04:23:51;11.10;99.90
2212;DHT22;48849;48.758;9.158;2022-09-21T04:26:21;11.00;99.90
2212;DHT22;48849;48.758;9.158;2022-09-21T04:28:50;11.00;99.90
2212;DHT22;48849;48.758;9.158;2022-09-21T04:31:17;11.00;99.90
2212;DHT22;48849;48.758;9.158;2022-09-21T04:33:46;11.00;99.90
2212;DHT22;48849;48.758;9.158;2022-09-21T04:36:12;11.00;99.90
2212;DHT22;48849;48.758;9.158;2022-09-21T04:38:39;11.00;99.90
2212;DHT22;48849;48.758;9.158;2022-09-21T04:41:06;11.00;99.90
2212;DHT22;48849;48.758;9.158;2022-09-21T04:43:32;11.00;99.90
2212;DHT22;48849;48.758;9.158;2022-09-21T04:46:05;11.00;99.90
2212;DHT22;48849;48.758;9.158;2022-09-21T04:48:32;10.90;99.90
2212;DHT22;48849;48.758;9.158;2022-09-21T04:50:59;11.00;99.90
2212;DHT22;48849;48.758;9.158;2022-09-21T04:53:26;11.00;99.90
2212;DHT22;48849;48.758;9.158;2022-09-21T04:55:53;11.00;99.90
2212;DHT22;48849;48.758;9.158;2022-09-21T04:58:20;10.90;99.90
2212;DHT22;48849;48.758;9.158;2022-09-21T05:00:48;10.90;99.90
2212;DHT22;48849;48.758;9.158;2022-09-21T05:03:16;10.90;99.90
2212;DHT22;48849;48.758;9.158;2022-09-21T05:05:46;10.90;99.90
2212;DHT22;48849;48.758;9.158;2022-09-21T05:08:13;10.80;99.90
2212;DHT22;48849;48.758;9.158;2022-09-21T05:10:39;10.80;99.90
2212;DHT22;48849;48.758;9.158;2022-09-21T05:13:05;10.80;99.90
2212;DHT22;48849;48.758;9.158;2022-09-21T05:15:32;10.80;99.90
2212;DHT22;48849;48.758;9.158;2022-09-21T05:17:58;10.80;99.90
2212;DHT22;48849;48.758;9.158;2022-09-21T05:20:26;10.80;99.90
2212;DHT22;48849;48.758;9.158;2022-09-21T05:22:53;10.90;99.90
2212;DHT22;48849;48.758;9.158;2022-09-21T05:25:20;10.90;99.90
2212;DHT22;48849;48.758;9.158;2022-09-21T05:27:46;10.80;99.90
2212;DHT22;48849;48.758;9.158;2022-09-21T05:30:14;10.70;99.90
2212;DHT22;48849;48.758;9.158;2022-09-21T05:32:44;10.80;99.90
2212;DHT22;48849;48.758;9.158;2022-09-21T05:35:21;10.80;99.90
2212;DHT22;48849;48.758;9.158;2022-09-21T05:37:56;10.70;99.90
2212;DHT22;48849;48.758;9.158;2022-09-21T05:40:25;10.60;99.90
2212;DHT22;48849;48.758;9.158;2022-09-21T05:42:52;10.70;99.90
2212;DHT22;48849;48.758;9.158;2022-09-21T05:45:20;10.70;99.90
2212;DHT22;48849;48.758;9.158;2022-09-21T05:48:04;10.70;99.90
2212;DHT22;48849;48.758;9.158;2022-09-21T05:50:57;10.70;99.90
2212;DHT22;48849;48.758;9.158;2022-09-21T05:53:40;10.70;99.90
2212;DHT22;48849;48.758;9.158;2022-09-21T05:56:17;10.70;99.90
2212;DHT22;48849;48.758;9.158;2022-09-21T05:58:53;10.70;99.90
2212;DHT22;48849;48.758;9.158;2022-09-21T06:01:34;10.70;99.90
2212;DHT22;48849;48.758;9.158;2022-09-21T06:04:09;10.70;99.90
2212;DHT22;48849;48.758;9.158;2022-09-21T06:06:36;10.80;99.90
2212;DHT22;48849;48.758;9.158;2022-09-21T06:09:04;10.70;99.90
2212;DHT22;48849;48.758;9.158;2022-09-21T06:11:31;10.80;99.90
2212;DHT22;48849;48.758;9.158;2022-09-21T06:13:59;10.80;99.90
2212;DHT22;48849;48.758;9.158;2022-09-21T06:16:26;10.80;99.90
2212;DHT22;48849;48.758;9.158;2022-09-21T06:18:52;10.80;99.90
2212;DHT22;48849;48.758;9.158;2022-09-21T06:21:19;10.80;99.90
2212;DHT22;48849;48.758;9.158;2022-09-21T06:23:46;10.80;99.90
2212;DHT22;48849;48.758;9.158;2022-09-21T06:26:14;10.80;99.90
2212;DHT22;48849;48.758;9.158;2022-09-21T06:28:42;10.90;99.90
2212;DHT22;48849;48.758;9.158;2022-09-21T06:31:08;10.90;99.90
2212;DHT22;48849;48.758;9.158;2022-09-21T06:33:35;11.00;99.90
2212;DHT22;48849;48.758;9.158;2022-09-21T06:36:03;11.00;99.90
2212;DHT22;48849;48.758;9.158;2022-09-21T06:38:29;11.00;99.90
2212;DHT22;48849;48.758;9.158;2022-09-21T06:41:00;11.00;99.90
2212;DHT22;48849;48.758;9.158;2022-09-21T06:43:29;11.10;99.90
2212;DHT22;48849;48.758;9.158;2022-09-21T06:45:57;11.10;99.90
2212;DHT22;48849;48.758;9.158;2022-09-21T06:48:24;11.10;99.90
2212;DHT22;48849;48.758;9.158;2022-09-21T06:50:55;11.20;99.90
2212;DHT22;48849;48.758;9.158;2022-09-21T06:53:22;11.20;99.90
2212;DHT22;48849;48.758;9.158;2022-09-21T06:55:49;11.20;99.90
2212;DHT22;48849;48.758;9.158;2022-09-21T06:58:16;11.30;99.90
2212;DHT22;48849;48.758;9.158;2022-09-21T07:00:45;11.30;99.90
2212;DHT22;48849;48.758;9.158;2022-09-21T07:03:11;11.40;99.90
2212;DHT22;48849;48.758;9.158;2022-09-21T07:05:39;11.40;99.90
2212;DHT22;48849;48.758;9.158;2022-09-21T07:08:05;11.40;99.90
2212;DHT22;48849;48.758;9.158;2022-09-21T07:10:32;11.50;99.90
2212;DHT22;48849;48.758;9.158;2022-09-21T07:13:01;11.60;99.90
2212;DHT22;48849;48.758;9.158;2022-09-21T07:15:28;11.70;99.90
2212;DHT22;48849;48.758;9.158;2022-09-21T07:17:57;11.70;99.90
2212;DHT22;48849;48.758;9.158;2022-09-21T07:20:24;11.70;99.90
2212;DHT22;48849;48.758;9.158;2022-09-21T07:22:50;11.70;99.90
2212;DHT22;48849;48.758;9.158;2022-09-21T07:25:17;11.80;99.90
2212;DHT22;48849;48.758;9.158;2022-09-21T07:27:44;11.80;99.90
2212;DHT22;48849;48.758;9.158;2022-09-21T07:30:12;11.80;99.90
2212;DHT22;48849;48.758;9.158;2022-09-21T07:32:39;11.90;99.90
2212;DHT22;48849;48.758;9.158;2022-09-21T07:35:07;11.90;99.90
2212;DHT22;48849;48.758;9.158;2022-09-21T07:37:34;11.90;99.90
2212;DHT22;48849;48.758;9.158;2022-09-21T07:40:01;11.90;99.90
2212;DHT22;48849;48.758;9.158;2022-09-21T07:42:30;12.00;99.90
2212;DHT22;48849;48.758;9.158;2022-09-21T07:44:57;12.10;99.90
2212;DHT22;48849;48.758;9.158;2022-09-21T07:47:24;12.10;99.90
2212;DHT22;48849;48.758;9.158;2022-09-21T07:49:52;12.10;99.90
2212;DHT22;48849;48.758;9.158;2022-09-21T07:52:21;12.20;99.90
2212;DHT22;48849;48.758;9.158;2022-09-21T07:54:48;12.20;99.90
2212;DHT22;48849;48.758;9.158;2022-09-21T07:57:14;12.20;99.90
2212;DHT22;48849;48.758;9.158;2022-09-21T07:59:58;12.30;99.90
2212;DHT22;48849;48.758;9.158;2022-09-21T08:02:25;12.30;99.90
2212;DHT22;48849;48.758;9.158;2022-09-21T08:04:51;12.30;99.90
2212;DHT22;48849;48.758;9.158;2022-09-21T08:07:20;12.40;99.90
2212;DHT22;48849;48.758;9.158;2022-09-21T08:09:47;12.40;99.90
2212;DHT22;48849;48.758;9.158;2022-09-21T08:12:17;12.50;99.90
2212;DHT22;48849;48.758;9.158;2022-09-21T08:14:45;12.50;99.90
2212;DHT22;48849;48.758;9.158;2022-09-21T08:17:12;12.50;99.90
2212;DHT22;48849;48.758;9.158;2022-09-21T08:19:39;12.60;99.90
2212;DHT22;48849;48.758;9.158;2022-09-21T08:22:06;12.60;99.90
2212;DHT22;48849;48.758;9.158;2022-09-21T08:24:34;12.60;99.90
2212;DHT22;48849;48.758;9.158;2022-09-21T08:27:02;12.70;99.90
2212;DHT22;48849;48.758;9.158;2022-09-21T08:29:28;12.70;99.90
2212;DHT22;48849;48.758;9.158;2022-09-21T08:31:55;12.70;99.90
2212;DHT22;48849;48.758;9.158;2022-09-21T08:34:22;12.80;99.90
2212;DHT22;48849;48.758;9.158;2022-09-21T08:36:49;12.80;99.90
2212;DHT22;48849;48.758;9.158;2022-09-21T08:39:16;12.90;99.90
2212;DHT22;48849;48.758;9.158;2022-09-21T08:41:58;12.90;99.90
2212;DHT22;48849;48.758;9.158;2022-09-21T08:44:30;13.00;99.90
2212;DHT22;48849;48.758;9.158;2022-09-21T08:47:03;13.00;99.90
2212;DHT22;48849;48.758;9.158;2022-09-21T08:49:34;13.00;99.90
2212;DHT22;48849;48.758;9.158;2022-09-21T08:52:04;13.00;99.90
2212;DHT22;48849;48.758;9.158;2022-09-21T08:54:37;13.10;99.90
2212;DHT22;48849;48.758;9.158;2022-09-21T08:57:11;13.10;99.90
2212;DHT22;48849;48.758;9.158;2022-09-21T08:59:39;13.20;99.90
2212;DHT22;48849;48.758;9.158;2022-09-21T09:02:28;13.20;99.90
2212;DHT22;48849;48.758;9.158;2022-09-21T09:05:00;13.20;99.90
2212;DHT22;48849;48.758;9.158;2022-09-21T09:07:50;13.30;99.90
2212;DHT22;48849;48.758;9.158;2022-09-21T09:10:36;13.30;99.90
2212;DHT22;48849;48.758;9.158;2022-09-21T09:13:14;13.40;99.90
2212;DHT22;48849;48.758;9.158;2022-09-21T09:15:51;13.40;99.90
2212;DHT22;48849;48.758;9.158;2022-09-21T09:18:23;13.40;99.90
2212;DHT22;48849;48.758;9.158;2022-09-21T09:20:56;13.50;99.90
2212;DHT22;48849;48.758;9.158;2022-09-21T09:23:25;13.60;99.90
2212;DHT22;48849;48.758;9.158;2022-09-21T09:25:57;13.60;99.90
2212;DHT22;48849;48.758;9.158;2022-09-21T09:28:29;13.60;99.90
2212;DHT22;48849;48.758;9.158;2022-09-21T09:31:02;13.60;99.90
2212;DHT22;48849;48.758;9.158;2022-09-21T09:33:37;13.70;99.90
2212;DHT22;48849;48.758;9.158;2022-09-21T09:36:11;13.70;99.90
2212;DHT22;48849;48.758;9.158;2022-09-21T09:38:40;13.70;99.90
2212;DHT22;48849;48.758;9.158;2022-09-21T09:41:34;13.80;99.90
2212;DHT22;48849;48.758;9.158;2022-09-21T09:44:17;13.80;99.90
2212;DHT22;48849;48.758;9.158;2022-09-21T09:46:53;13.80;99.90
2212;DHT22;48849;48.758;9.158;2022-09-21T09:49:33;13.80;99.90
2212;DHT22;48849;48.758;9.158;2022-09-21T09:52:03;13.90;99.90
2212;DHT22;48849;48.758;9.158;2022-09-21T09:54:33;13.90;99.90
2212;DHT22;48849;48.758;9.158;2022-09-21T09:57:02;13.90;99.90
2212;DHT22;48849;48.758;9.158;2022-09-21T09:59:34;14.00;99.90
2212;DHT22;48849;48.758;9.158;2022-09-21T10:02:04;14.00;99.90
2212;DHT22;48849;48.758;9.158;2022-09-21T10:04:31;14.00;99.90
2212;DHT22;48849;48.758;9.158;2022-09-21T10:07:00;14.10;99.90
2212;DHT22;48849;48.758;9.158;2022-09-21T10:09:28;14.10;99.90
2212;DHT22;48849;48.758;9.158;2022-09-21T10:11:58;14.10;99.90
2212;DHT22;48849;48.758;9.158;2022-09-21T10:14:27;14.20;99.90
2212;DHT22;48849;48.758;9.158;2022-09-21T10:17:01;14.30;99.90
2212;DHT22;48849;48.758;9.158;2022-09-21T10:19:30;14.40;99.90
2212;DHT22;48849;48.758;9.158;2022-09-21T10:21:58;14.40;99.90
2212;DHT22;48849;48.758;9.158;2022-09-21T10:24:28;14.40;99.90
2212;DHT22;48849;48.758;9.158;2022-09-21T10:27:03;14.50;99.90
2212;DHT22;48849;48.758;9.158;2022-09-21T10:29:39;14.50;99.90
2212;DHT22;48849;48.758;9.158;2022-09-21T10:32:19;14.60;99.90
2212;DHT22;48849;48.758;9.158;2022-09-21T10:35:10;14.60;99.90
2212;DHT22;48849;48.758;9.158;2022-09-21T10:37:40;14.60;99.90
2212;DHT22;48849;48.758;9.158;2022-09-21T10:40:23;14.70;99.90
2212;DHT22;48849;48.758;9.158;2022-09-21T10:42:51;14.80;99.90
2212;DHT22;48849;48.758;9.158;2022-09-21T10:45:20;14.80;99.90
2212;DHT22;48849;48.758;9.158;2022-09-21T10:47:50;14.80;99.90
2212;DHT22;48849;48.758;9.158;2022-09-21T10:50:23;14.90;99.90
2212;DHT22;48849;48.758;9.158;2022-09-21T10:52:55;14.90;99.90
2212;DHT22;48849;48.758;9.158;2022-09-21T10:55:23;15.00;99.90
2212;DHT22;48849;48.758;9.158;2022-09-21T10:57:51;15.10;99.90
2212;DHT22;48849;48.758;9.158;2022-09-21T11:00:30;15.10;99.90
2212;DHT22;48849;48.758;9.158;2022-09-21T11:03:05;15.20;99.90
2212;DHT22;48849;48.758;9.158;2022-09-21T11:05:53;15.20;99.90
2212;DHT22;48849;48.758;9.158;2022-09-21T11:08:25;15.20;99.90
2212;DHT22;48849;48.758;9.158;2022-09-21T11:11:03;15.30;99.90
2212;DHT22;48849;48.758;9.158;2022-09-21T11:13:36;15.40;99.90
2212;DHT22;48849;48.758;9.158;2022-09-21T11:16:17;15.50;99.90
2212;DHT22;48849;48.758;9.158;2022-09-21T11:18:54;15.70;99.90
2212;DHT22;48849;48.758;9.158;2022-09-21T11:21:31;15.80;99.90
2212;DHT22;48849;48.758;9.158;2022-09-21T11:24:17;16.00;99.90
2212;DHT22;48849;48.758;9.158;2022-09-21T11:26:49;16.20;99.90
2212;DHT22;48849;48.758;9.158;2022-09-21T11:29:23;16.50;99.90
2212;DHT22;48849;48.758;9.158;2022-09-21T11:32:01;17.00;99.90
2212;DHT22;48849;48.758;9.158;2022-09-21T11:34:46;17.60;99.90
2212;DHT22;48849;48.758;9.158;2022-09-21T11:37:24;18.20;99.90
2212;DHT22;48849;48.758;9.158;2022-09-21T11:40:05;18.50;99.90
2212;DHT22;48849;48.758;9.158;2022-09-21T11:42:46;18.70;99.90
2212;DHT22;48849;48.758;9.158;2022-09-21T11:45:29;18.80;99.90
2212;DHT22;48849;48.758;9.158;2022-09-21T11:48:08;18.70;99.90
2212;DHT22;48849;48.758;9.158;2022-09-21T11:50:47;18.40;99.90
2212;DHT22;48849;48.758;9.158;2022-09-21T11:53:35;18.10;99.90
2212;DHT22;48849;48.758;9.158;2022-09-21T11:56:21;17.80;99.90
2212;DHT22;48849;48.758;9.158;2022-09-21T11:59:02;17.80;99.90
2212;DHT22;48849;48.758;9.158;2022-09-21T12:01:49;17.80;99.90
2212;DHT22;48849;48.758;9.158;2022-09-21T12:04:36;17.70;99.90
2212;DHT22;48849;48.758;9.158;2022-09-21T12:07:27;17.50;99.90
2212;DHT22;48849;48.758;9.158;2022-09-21T12:10:25;17.30;99.90
2212;DHT22;48849;48.758;9.158;2022-09-21T12:13:02;17.30;99.90
2212;DHT22;48849;48.758;9.158;2022-09-21T12:15:37;17.40;99.90
2212;DHT22;48849;48.758;9.158;2022-09-21T12:18:09;17.40;99.90
2212;DHT22;48849;48.758;9.158;2022-09-21T12:20:43;17.50;99.90
2212;DHT22;48849;48.758;9.158;2022-09-21T12:23:16;17.40;99.90
2212;DHT22;48849;48.758;9.158;2022-09-21T12:25:48;17.20;99.90
2212;DHT22;48849;48.758;9.158;2022-09-21T12:28:19;17.10;99.90
2212;DHT22;48849;48.758;9.158;2022-09-21T12:30:49;17.00;99.90
2212;DHT22;48849;48.758;9.158;2022-09-21T12:33:22;16.90;99.90
2212;DHT22;48849;48.758;9.158;2022-09-21T12:35:54;16.80;99.90
2212;DHT22;48849;48.758;9.158;2022-09-21T12:38:27;16.70;99.90
2212;DHT22;48849;48.758;9.158;2022-09-21T12:41:01;16.70;99.90
2212;DHT22;48849;48.758;9.158;2022-09-21T12:43:34;16.80;99.90
2212;DHT22;48849;48.758;9.158;2022-09-21T12:46:06;16.80;99.90
2212;DHT22;48849;48.758;9.158;2022-09-21T12:48:36;16.80;99.90
2212;DHT22;48849;48.758;9.158;2022-09-21T12:51:09;16.70;99.90
2212;DHT22;48849;48.758;9.158;2022-09-21T12:53:42;16.70;99.90
2212;DHT22;48849;48.758;9.158;2022-09-21T12:56:14;16.70;99.90
2212;DHT22;48849;48.758;9.158;2022-09-21T12:59:03;16.70;99.90
2212;DHT22;48849;48.758;9.158;2022-09-21T13:01:34;16.70;99.90
2212;DHT22;48849;48.758;9.158;2022-09-21T13:04:30;16.70;99.90
2212;DHT22;48849;48.758;9.158;2022-09-21T13:07:27;16.70;99.90
2212;DHT22;48849;48.758;9.158;2022-09-21T13:09:59;16.80;99.90
2212;DHT22;48849;48.758;9.158;2022-09-21T13:12:29;16.80;99.90
2212;DHT22;48849;48.758;9.158;2022-09-21T13:15:02;16.80;99.90
2212;DHT22;48849;48.758;9.158;2022-09-21T13:17:31;16.80;99.90
2212;DHT22;48849;48.758;9.158;2022-09-21T13:20:01;16.80;99.90
2212;DHT22;48849;48.758;9.158;2022-09-21T13:22:31;16.80;99.90
2212;DHT22;48849;48.758;9.158;2022-09-21T13:25:05;16.70;99.90
2212;DHT22;48849;48.758;9.158;2022-09-21T13:28:03;16.70;99.90
2212;DHT22;48849;48.758;9.158;2022-09-21T13:30:37;16.70;99.90
2212;DHT22;48849;48.758;9.158;2022-09-21T13:33:28;16.60;99.90
2212;DHT22;48849;48.758;9.158;2022-09-21T13:36:30;16.60;99.90
2212;DHT22;48849;48.758;9.158;2022-09-21T13:39:15;16.50;99.90
2212;DHT22;48849;48.758;9.158;2022-09-21T13:41:44;16.50;99.90
2212;DHT22;48849;48.758;9.158;2022-09-21T13:44:38;16.40;99.90
2212;DHT22;48849;48.758;9.158;2022-09-21T13:47:06;16.40;99.90
2212;DHT22;48849;48.758;9.158;2022-09-21T13:49:40;16.40;99.90
2212;DHT22;48849;48.758;9.158;2022-09-21T13:52:25;16.40;99.90
2212;DHT22;48849;48.758;9.158;2022-09-21T13:54:55;16.40;99.90
2212;DHT22;48849;48.758;9.158;2022-09-21T13:57:28;16.40;99.90
2212;DHT22;48849;48.758;9.158;2022-09-21T14:00:27;16.40;99.90
2212;DHT22;48849;48.758;9.158;2022-09-21T14:02:58;16.40;99.90
2212;DHT22;48849;48.758;9.158;2022-09-21T14:05:31;16.40;99.90
2212;DHT22;48849;48.758;9.158;2022-09-21T14:08:02;16.40;99.90
2212;DHT22;48849;48.758;9.158;2022-09-21T14:10:32;16.40;99.90
2212;DHT22;48849;48.758;9.158;2022-09-21T14:13:03;16.40;99.90
2212;DHT22;48849;48.758;9.158;2022-09-21T14:15:38;16.40;99.90
2212;DHT22;48849;48.758;9.158;2022-09-21T14:18:20;16.40;99.90
2212;DHT22;48849;48.758;9.158;2022-09-21T14:21:11;16.40;99.90
2212;DHT22;48849;48.758;9.158;2022-09-21T14:24:15;16.40;99.90
2212;DHT22;48849;48.758;9.158;2022-09-21T14:26:51;16.40;99.90
2212;DHT22;48849;48.758;9.158;2022-09-21T14:29:24;16.40;99.90
2212;DHT22;48849;48.758;9.158;2022-09-21T14:31:56;16.40;99.90
2212;DHT22;48849;48.758;9.158;2022-09-21T14:34:28;16.30;99.90
2212;DHT22;48849;48.758;9.158;2022-09-21T14:36:58;16.30;99.90
2212;DHT22;48849;48.758;9.158;2022-09-21T14:39:30;16.30;99.90
2212;DHT22;48849;48.758;9.158;2022-09-21T14:42:06;16.30;99.90
2212;DHT22;48849;48.758;9.158;2022-09-21T14:44:38;16.30;99.90
2212;DHT22;48849;48.758;9.158;2022-09-21T14:47:15;16.30;99.90
2212;DHT22;48849;48.758;9.158;2022-09-21T14:49:55;16.30;99.90
2212;DHT22;48849;48.758;9.158;2022-09-21T14:52:32;16.30;99.90
2212;DHT22;48849;48.758;9.158;2022-09-21T14:55:10;16.30;99.90
2212;DHT22;48849;48.758;9.158;2022-09-21T14:58:10;16.30;99.90
2212;DHT22;48849;48.758;9.158;2022-09-21T15:00:44;16.30;99.90
2212;DHT22;48849;48.758;9.158;2022-09-21T15:03:32;16.20;99.90
2212;DHT22;48849;48.758;9.158;2022-09-21T15:06:14;16.20;99.90
2212;DHT22;48849;48.758;9.158;2022-09-21T15:09:15;16.20;99.90
2212;DHT22;48849;48.758;9.158;2022-09-21T15:12:10;16.20;99.90
2212;DHT22;48849;48.758;9.158;2022-09-21T15:14:41;16.10;99.90
2212;DHT22;48849;48.758;9.158;2022-09-21T15:17:25;16.10;99.90
2212;DHT22;48849;48.758;9.158;2022-09-21T15:19:56;16.00;99.90
2212;DHT22;48849;48.758;9.158;2022-09-21T15:22:23;16.00;99.90
2212;DHT22;48849;48.758;9.158;2022-09-21T15:24:53;16.20;99.90
2212;DHT22;48849;48.758;9.158;2022-09-21T15:27:22;16.10;99.90
2212;DHT22;48849;48.758;9.158;2022-09-21T15:29:52;16.10;99.90
2212;DHT22;48849;48.758;9.158;2022-09-21T15:32:30;16.10;99.90
2212;DHT22;48849;48.758;9.158;2022-09-21T15:34:59;16.10;99.90
2212;DHT22;48849;48.758;9.158;2022-09-21T15:37:27;16.10;99.90
2212;DHT22;48849;48.758;9.158;2022-09-21T15:40:01;16.00;99.90
2212;DHT22;48849;48.758;9.158;2022-09-21T15:42:29;16.00;99.90
2212;DHT22;48849;48.758;9.158;2022-09-21T15:45:09;16.00;99.90
2212;DHT22;48849;48.758;9.158;2022-09-21T15:47:37;16.00;99.90
2212;DHT22;48849;48.758;9.158;2022-09-21T15:50:11;16.00;99.90
2212;DHT22;48849;48.758;9.158;2022-09-21T15:52:41;16.00;99.90
2212;DHT22;48849;48.758;9.158;2022-09-21T15:55:15;16.00;99.90
2212;DHT22;48849;48.758;9.158;2022-09-21T15:57:44;15.90;99.90
2212;DHT22;48849;48.758;9.158;2022-09-21T16:00:24;16.00;99.90
2212;DHT22;48849;48.758;9.158;2022-09-21T16:03:05;15.90;99.90
2212;DHT22;48849;48.758;9.158;2022-09-21T16:05:42;15.90;99.90
2212;DHT22;48849;48.758;9.158;2022-09-21T16:08:19;15.90;99.90
2212;DHT22;48849;48.758;9.158;2022-09-21T16:10:47;15.90;99.90
2212;DHT22;48849;48.758;9.158;2022-09-21T16:13:19;15.90;99.90
2212;DHT22;48849;48.758;9.158;2022-09-21T16:16:05;15.90;99.90
2212;DHT22;48849;48.758;9.158;2022-09-21T16:18:41;15.90;99.90
2212;DHT22;48849;48.758;9.158;2022-09-21T16:21:20;15.90;99.90